sensor_id;sensor_type;location;lat;lon;timestamp;P1;durP1;ratioP1;P2;durP2;ratioP2
30462;SDS011;17256;43.618;25.336;2023-04-25T00:02:24;7.80;;;7.20;;
30462;SDS011;17256;43.618;25.336;2023-04-25T00:04:50;7.60;;;6.90;;
30462;SDS011;17256;43.618;25.336;2023-04-25T00:07:15;8.90;;;8.00;;
30462;SDS011;17256;43.618;25.336;2023-04-25T00:09:42;8.60;;;7.80;;
30462;SDS011;17256;43.618;25.336;2023-04-25T00:12:07;8.10;;;7.30;;
30462;SDS011;17256;43.618;25.336;2023-04-25T00:14:33;7.67;;;6.97;;
30462;SDS011;17256;43.618;25.336;2023-04-25T00:17:00;7.73;;;6.97;;
30462;SDS011;17256;43.618;25.336;2023-04-25T00:19:27;7.63;;;6.93;;
30462;SDS011;17256;43.618;25.336;2023-04-25T00:21:55;6.20;;;5.70;;
30462;SDS011;17256;43.618;25.336;2023-04-25T00:24:21;7.23;;;5.87;;
30462;SDS011;17256;43.618;25.336;2023-04-25T00:26:47;7.07;;;4.90;;
30462;SDS011;17256;43.618;25.336;2023-04-25T00:29:13;6.53;;;5.97;;
30462;SDS011;17256;43.618;25.336;2023-04-25T00:31:38;6.47;;;5.87;;
30462;SDS011;17256;43.618;25.336;2023-04-25T00:34:04;6.10;;;5.60;;
30462;SDS011;17256;43.618;25.336;2023-04-25T00:36:30;6.97;;;6.17;;
30462;SDS011;17256;43.618;25.336;2023-04-25T00:38:56;6.37;;;5.77;;
30462;SDS011;17256;43.618;25.336;2023-04-25T00:41:22;6.17;;;5.30;;
30462;SDS011;17256;43.618;25.336;2023-04-25T00:45:27;5.23;;;4.83;;
30462;SDS011;17256;43.618;25.336;2023-04-25T01:01:24;3.23;;;2.93;;
30462;SDS011;17256;43.618;25.336;2023-04-25T01:05:18;2.53;;;2.33;;
30462;SDS011;17256;43.618;25.336;2023-04-25T01:08:54;2.73;;;2.43;;
30462;SDS011;17256;43.618;25.336;2023-04-25T01:12:42;2.10;;;2.00;;
30462;SDS011;17256;43.618;25.336;2023-04-25T01:16:34;3.90;;;2.10;;
30462;SDS011;17256;43.618;25.336;2023-04-25T01:27:42;2.73;;;2.40;;
30462;SDS011;17256;43.618;25.336;2023-04-25T01:34:54;3.40;;;3.10;;
30462;SDS011;17256;43.618;25.336;2023-04-25T01:37:54;2.60;;;2.40;;
30462;SDS011;17256;43.618;25.336;2023-04-25T01:40:20;2.70;;;2.50;;
30462;SDS011;17256;43.618;25.336;2023-04-25T01:42:47;3.70;;;2.67;;
30462;SDS011;17256;43.618;25.336;2023-04-25T01:45:13;3.00;;;2.80;;
30462;SDS011;17256;43.618;25.336;2023-04-25T01:47:39;3.23;;;3.03;;
30462;SDS011;17256;43.618;25.336;2023-04-25T01:50:05;2.73;;;2.53;;
30462;SDS011;17256;43.618;25.336;2023-04-25T01:52:34;3.10;;;2.90;;
30462;SDS011;17256;43.618;25.336;2023-04-25T01:55:03;3.00;;;2.70;;
30462;SDS011;17256;43.618;25.336;2023-04-25T01:57:32;3.60;;;3.13;;
30462;SDS011;17256;43.618;25.336;2023-04-25T02:00:00;2.67;;;2.47;;
30462;SDS011;17256;43.618;25.336;2023-04-25T02:02:45;3.00;;;2.80;;
30462;SDS011;17256;43.618;25.336;2023-04-25T02:05:38;2.13;;;2.03;;
30462;SDS011;17256;43.618;25.336;2023-04-25T02:08:07;2.33;;;2.23;;
30462;SDS011;17256;43.618;25.336;2023-04-25T02:10:34;2.20;;;2.07;;
30462;SDS011;17256;43.618;25.336;2023-04-25T02:13:08;2.57;;;2.40;;
30462;SDS011;17256;43.618;25.336;2023-04-25T02:15:42;3.87;;;2.20;;
30462;SDS011;17256;43.618;25.336;2023-04-25T02:18:13;2.10;;;2.00;;
30462;SDS011;17256;43.618;25.336;2023-04-25T02:20:41;2.03;;;1.90;;
30462;SDS011;17256;43.618;25.336;2023-04-25T02:23:07;1.90;;;1.80;;
30462;SDS011;17256;43.618;25.336;2023-04-25T02:25:33;2.67;;;2.40;;
30462;SDS011;17256;43.618;25.336;2023-04-25T02:27:59;2.93;;;2.73;;
30462;SDS011;17256;43.618;25.336;2023-04-25T02:32:53;3.00;;;2.80;;
30462;SDS011;17256;43.618;25.336;2023-04-25T02:35:19;2.80;;;2.60;;
30462;SDS011;17256;43.618;25.336;2023-04-25T02:37:45;3.13;;;2.83;;
30462;SDS011;17256;43.618;25.336;2023-04-25T02:40:12;3.10;;;2.80;;
30462;SDS011;17256;43.618;25.336;2023-04-25T02:42:38;3.27;;;3.07;;
30462;SDS011;17256;43.618;25.336;2023-04-25T02:45:03;3.67;;;3.30;;
30462;SDS011;17256;43.618;25.336;2023-04-25T02:47:30;3.60;;;3.30;;
30462;SDS011;17256;43.618;25.336;2023-04-25T02:49:55;3.63;;;3.33;;
30462;SDS011;17256;43.618;25.336;2023-04-25T02:52:21;3.73;;;3.27;;
30462;SDS011;17256;43.618;25.336;2023-04-25T02:54:54;3.40;;;3.13;;
30462;SDS011;17256;43.618;25.336;2023-04-25T02:57:20;4.00;;;3.70;;
30462;SDS011;17256;43.618;25.336;2023-04-25T02:59:45;4.07;;;3.63;;
30462;SDS011;17256;43.618;25.336;2023-04-25T03:02:14;5.00;;;4.23;;
30462;SDS011;17256;43.618;25.336;2023-04-25T03:04:40;3.50;;;3.20;;
30462;SDS011;17256;43.618;25.336;2023-04-25T03:07:07;2.90;;;2.70;;
30462;SDS011;17256;43.618;25.336;2023-04-25T03:09:34;3.60;;;3.13;;
30462;SDS011;17256;43.618;25.336;2023-04-25T03:12:02;4.63;;;3.87;;
30462;SDS011;17256;43.618;25.336;2023-04-25T03:14:28;5.23;;;3.40;;
30462;SDS011;17256;43.618;25.336;2023-04-25T03:16:54;5.53;;;5.13;;
30462;SDS011;17256;43.618;25.336;2023-04-25T03:19:21;5.00;;;4.60;;
30462;SDS011;17256;43.618;25.336;2023-04-25T03:21:49;5.90;;;5.40;;
30462;SDS011;17256;43.618;25.336;2023-04-25T03:24:15;7.97;;;6.33;;
30462;SDS011;17256;43.618;25.336;2023-04-25T03:26:41;6.30;;;5.30;;
30462;SDS011;17256;43.618;25.336;2023-04-25T03:29:07;6.30;;;5.70;;
30462;SDS011;17256;43.618;25.336;2023-04-25T03:31:34;5.90;;;5.40;;
30462;SDS011;17256;43.618;25.336;2023-04-25T03:34:02;4.93;;;4.53;;
30462;SDS011;17256;43.618;25.336;2023-04-25T03:36:27;3.70;;;3.50;;
30462;SDS011;17256;43.618;25.336;2023-04-25T03:38:53;4.10;;;3.70;;
30462;SDS011;17256;43.618;25.336;2023-04-25T03:41:20;4.67;;;4.20;;
30462;SDS011;17256;43.618;25.336;2023-04-25T03:43:53;4.43;;;4.13;;
30462;SDS011;17256;43.618;25.336;2023-04-25T03:46:19;5.17;;;4.67;;
30462;SDS011;17256;43.618;25.336;2023-04-25T03:48:45;4.50;;;4.13;;
30462;SDS011;17256;43.618;25.336;2023-04-25T03:51:21;3.67;;;3.47;;
30462;SDS011;17256;43.618;25.336;2023-04-25T03:53:51;6.97;;;6.30;;
30462;SDS011;17256;43.618;25.336;2023-04-25T03:56:29;6.83;;;6.23;;
30462;SDS011;17256;43.618;25.336;2023-04-25T03:59:02;8.37;;;6.50;;
30462;SDS011;17256;43.618;25.336;2023-04-25T04:01:29;8.47;;;6.37;;
30462;SDS011;17256;43.618;25.336;2023-04-25T04:03:56;6.80;;;6.27;;
30462;SDS011;17256;43.618;25.336;2023-04-25T04:06:23;5.23;;;4.80;;
30462;SDS011;17256;43.618;25.336;2023-04-25T04:08:55;7.30;;;6.60;;
30462;SDS011;17256;43.618;25.336;2023-04-25T04:11:23;7.07;;;6.33;;
30462;SDS011;17256;43.618;25.336;2023-04-25T04:13:48;6.33;;;5.67;;
30462;SDS011;17256;43.618;25.336;2023-04-25T04:16:14;4.93;;;4.63;;
30462;SDS011;17256;43.618;25.336;2023-04-25T04:18:40;7.53;;;4.60;;
30462;SDS011;17256;43.618;25.336;2023-04-25T04:21:06;5.80;;;5.30;;
30462;SDS011;17256;43.618;25.336;2023-04-25T04:23:34;5.70;;;5.30;;
30462;SDS011;17256;43.618;25.336;2023-04-25T04:26:01;7.13;;;6.53;;
30462;SDS011;17256;43.618;25.336;2023-04-25T04:28:45;8.27;;;7.67;;
30462;SDS011;17256;43.618;25.336;2023-04-25T04:31:37;9.40;;;7.47;;
30462;SDS011;17256;43.618;25.336;2023-04-25T04:34:03;7.63;;;6.90;;
30462;SDS011;17256;43.618;25.336;2023-04-25T04:36:29;8.47;;;7.80;;
30462;SDS011;17256;43.618;25.336;2023-04-25T04:38:56;8.33;;;7.30;;
30462;SDS011;17256;43.618;25.336;2023-04-25T04:41:32;7.93;;;7.23;;
30462;SDS011;17256;43.618;25.336;2023-04-25T04:44:10;7.03;;;6.43;;
30462;SDS011;17256;43.618;25.336;2023-04-25T04:46:58;6.40;;;5.80;;
30462;SDS011;17256;43.618;25.336;2023-04-25T04:50:24;5.33;;;4.93;;
30462;SDS011;17256;43.618;25.336;2023-04-25T04:53:08;6.63;;;6.00;;
30462;SDS011;17256;43.618;25.336;2023-04-25T04:59:27;7.00;;;6.30;;
30462;SDS011;17256;43.618;25.336;2023-04-25T05:03:27;6.33;;;5.83;;
30462;SDS011;17256;43.618;25.336;2023-04-25T05:06:11;5.93;;;5.43;;
30462;SDS011;17256;43.618;25.336;2023-04-25T05:08:45;6.10;;;5.47;;
30462;SDS011;17256;43.618;25.336;2023-04-25T05:11:40;6.00;;;5.40;;
30462;SDS011;17256;43.618;25.336;2023-04-25T05:14:24;6.60;;;5.97;;
30462;SDS011;17256;43.618;25.336;2023-04-25T05:17:22;6.37;;;5.60;;
30462;SDS011;17256;43.618;25.336;2023-04-25T05:24:33;6.80;;;6.10;;
30462;SDS011;17256;43.618;25.336;2023-04-25T05:27:10;7.43;;;6.70;;
30462;SDS011;17256;43.618;25.336;2023-04-25T05:30:02;11.10;;;7.73;;
30462;SDS011;17256;43.618;25.336;2023-04-25T05:32:50;7.57;;;6.73;;
30462;SDS011;17256;43.618;25.336;2023-04-25T05:35:18;8.60;;;7.77;;
30462;SDS011;17256;43.618;25.336;2023-04-25T05:37:47;12.17;;;8.37;;
30462;SDS011;17256;43.618;25.336;2023-04-25T05:40:17;10.50;;;9.57;;
30462;SDS011;17256;43.618;25.336;2023-04-25T05:42:43;10.40;;;8.67;;
30462;SDS011;17256;43.618;25.336;2023-04-25T05:45:32;7.77;;;7.07;;
30462;SDS011;17256;43.618;25.336;2023-04-25T05:48:27;11.00;;;8.20;;
30462;SDS011;17256;43.618;25.336;2023-04-25T05:51:14;7.80;;;7.10;;
30462;SDS011;17256;43.618;25.336;2023-04-25T05:54:04;7.40;;;6.80;;
30462;SDS011;17256;43.618;25.336;2023-04-25T05:56:32;7.10;;;6.50;;
30462;SDS011;17256;43.618;25.336;2023-04-25T05:59:04;12.03;;;7.97;;
30462;SDS011;17256;43.618;25.336;2023-04-25T06:01:30;7.90;;;7.20;;
30462;SDS011;17256;43.618;25.336;2023-04-25T06:03:56;8.17;;;6.77;;
30462;SDS011;17256;43.618;25.336;2023-04-25T06:06:25;6.87;;;5.47;;
30462;SDS011;17256;43.618;25.336;2023-04-25T06:08:58;7.07;;;5.57;;
30462;SDS011;17256;43.618;25.336;2023-04-25T06:11:36;8.83;;;6.67;;
30462;SDS011;17256;43.618;25.336;2023-04-25T06:14:05;6.50;;;5.97;;
30462;SDS011;17256;43.618;25.336;2023-04-25T06:16:47;7.33;;;6.63;;
30462;SDS011;17256;43.618;25.336;2023-04-25T06:19:25;8.30;;;7.47;;
30462;SDS011;17256;43.618;25.336;2023-04-25T06:22:22;8.50;;;7.80;;
30462;SDS011;17256;43.618;25.336;2023-04-25T06:24:51;8.77;;;8.00;;
30462;SDS011;17256;43.618;25.336;2023-04-25T06:27:16;9.10;;;7.93;;
30462;SDS011;17256;43.618;25.336;2023-04-25T06:29:42;15.07;;;7.73;;
30462;SDS011;17256;43.618;25.336;2023-04-25T06:32:07;8.13;;;7.47;;
30462;SDS011;17256;43.618;25.336;2023-04-25T06:34:34;8.67;;;7.87;;
30462;SDS011;17256;43.618;25.336;2023-04-25T06:36:59;8.33;;;7.53;;
30462;SDS011;17256;43.618;25.336;2023-04-25T06:39:25;10.00;;;7.47;;
30462;SDS011;17256;43.618;25.336;2023-04-25T06:41:51;9.43;;;8.53;;
30462;SDS011;17256;43.618;25.336;2023-04-25T06:44:35;8.40;;;7.57;;
30462;SDS011;17256;43.618;25.336;2023-04-25T06:47:02;9.07;;;8.20;;
30462;SDS011;17256;43.618;25.336;2023-04-25T06:49:28;9.50;;;8.60;;
30462;SDS011;17256;43.618;25.336;2023-04-25T06:51:54;9.73;;;8.83;;
30462;SDS011;17256;43.618;25.336;2023-04-25T06:54:21;9.67;;;8.80;;
30462;SDS011;17256;43.618;25.336;2023-04-25T06:57:10;11.43;;;10.43;;
30462;SDS011;17256;43.618;25.336;2023-04-25T06:59:35;12.30;;;11.17;;
30462;SDS011;17256;43.618;25.336;2023-04-25T07:02:02;19.47;;;17.23;;
30462;SDS011;17256;43.618;25.336;2023-04-25T07:04:28;19.10;;;17.13;;
30462;SDS011;17256;43.618;25.336;2023-04-25T07:06:57;12.97;;;11.67;;
30462;SDS011;17256;43.618;25.336;2023-04-25T07:09:31;11.43;;;10.33;;
30462;SDS011;17256;43.618;25.336;2023-04-25T07:11:59;10.93;;;9.53;;
30462;SDS011;17256;43.618;25.336;2023-04-25T07:14:27;29.57;;;27.37;;
30462;SDS011;17256;43.618;25.336;2023-04-25T07:16:54;19.03;;;17.53;;
30462;SDS011;17256;43.618;25.336;2023-04-25T07:19:26;60.60;;;36.33;;
30462;SDS011;17256;43.618;25.336;2023-04-25T07:21:57;39.27;;;29.00;;
30462;SDS011;17256;43.618;25.336;2023-04-25T07:24:23;27.10;;;24.90;;
30462;SDS011;17256;43.618;25.336;2023-04-25T07:26:51;11.77;;;10.63;;
30462;SDS011;17256;43.618;25.336;2023-04-25T07:29:24;11.33;;;8.57;;
30462;SDS011;17256;43.618;25.336;2023-04-25T07:31:50;8.97;;;8.17;;
30462;SDS011;17256;43.618;25.336;2023-04-25T07:34:16;16.03;;;14.53;;
30462;SDS011;17256;43.618;25.336;2023-04-25T07:36:44;11.50;;;10.37;;
30462;SDS011;17256;43.618;25.336;2023-04-25T07:39:10;15.63;;;13.43;;
30462;SDS011;17256;43.618;25.336;2023-04-25T07:41:37;11.33;;;10.23;;
30462;SDS011;17256;43.618;25.336;2023-04-25T07:44:05;8.47;;;7.67;;
30462;SDS011;17256;43.618;25.336;2023-04-25T07:46:32;7.90;;;7.23;;
30462;SDS011;17256;43.618;25.336;2023-04-25T07:48:58;6.93;;;6.40;;
30462;SDS011;17256;43.618;25.336;2023-04-25T07:51:26;4.33;;;4.03;;
30462;SDS011;17256;43.618;25.336;2023-04-25T07:53:56;6.73;;;4.40;;
30462;SDS011;17256;43.618;25.336;2023-04-25T07:56:22;3.63;;;3.40;;
30462;SDS011;17256;43.618;25.336;2023-04-25T07:58:50;7.20;;;3.80;;
30462;SDS011;17256;43.618;25.336;2023-04-25T08:01:18;5.70;;;4.53;;
30462;SDS011;17256;43.618;25.336;2023-04-25T08:03:56;4.03;;;3.73;;
30462;SDS011;17256;43.618;25.336;2023-04-25T08:06:31;3.60;;;3.30;;
30462;SDS011;17256;43.618;25.336;2023-04-25T08:09:06;3.30;;;3.10;;
30462;SDS011;17256;43.618;25.336;2023-04-25T08:11:37;3.03;;;2.73;;
30462;SDS011;17256;43.618;25.336;2023-04-25T08:14:05;4.13;;;2.80;;
30462;SDS011;17256;43.618;25.336;2023-04-25T08:16:32;2.67;;;2.47;;
30462;SDS011;17256;43.618;25.336;2023-04-25T08:19:01;2.63;;;2.43;;
30462;SDS011;17256;43.618;25.336;2023-04-25T08:21:27;2.97;;;2.40;;
30462;SDS011;17256;43.618;25.336;2023-04-25T08:23:55;5.93;;;3.73;;
30462;SDS011;17256;43.618;25.336;2023-04-25T08:26:26;4.57;;;4.20;;
30462;SDS011;17256;43.618;25.336;2023-04-25T08:28:53;4.17;;;3.87;;
30462;SDS011;17256;43.618;25.336;2023-04-25T08:31:21;5.93;;;4.20;;
30462;SDS011;17256;43.618;25.336;2023-04-25T08:33:54;6.73;;;3.93;;
30462;SDS011;17256;43.618;25.336;2023-04-25T08:36:25;5.23;;;4.13;;
30462;SDS011;17256;43.618;25.336;2023-04-25T08:38:53;3.77;;;3.13;;
30462;SDS011;17256;43.618;25.336;2023-04-25T08:41:21;3.43;;;3.13;;
30462;SDS011;17256;43.618;25.336;2023-04-25T08:43:49;4.70;;;3.90;;
30462;SDS011;17256;43.618;25.336;2023-04-25T08:49:34;2.70;;;2.50;;
30462;SDS011;17256;43.618;25.336;2023-04-25T08:52:02;3.63;;;2.60;;
30462;SDS011;17256;43.618;25.336;2023-04-25T08:54:31;2.60;;;2.40;;
30462;SDS011;17256;43.618;25.336;2023-04-25T08:57:00;4.17;;;3.43;;
30462;SDS011;17256;43.618;25.336;2023-04-25T08:59:27;5.60;;;4.00;;
30462;SDS011;17256;43.618;25.336;2023-04-25T09:01:54;5.73;;;4.47;;
30462;SDS011;17256;43.618;25.336;2023-04-25T09:04:21;4.30;;;2.47;;
30462;SDS011;17256;43.618;25.336;2023-04-25T09:06:47;4.67;;;3.33;;
30462;SDS011;17256;43.618;25.336;2023-04-25T09:09:13;6.80;;;6.17;;
30462;SDS011;17256;43.618;25.336;2023-04-25T09:11:39;3.43;;;3.17;;
30462;SDS011;17256;43.618;25.336;2023-04-25T09:17:00;5.23;;;3.87;;
30462;SDS011;17256;43.618;25.336;2023-04-25T09:19:38;5.80;;;3.70;;
30462;SDS011;17256;43.618;25.336;2023-04-25T09:22:10;5.70;;;5.10;;
30462;SDS011;17256;43.618;25.336;2023-04-25T09:24:37;6.20;;;5.60;;
30462;SDS011;17256;43.618;25.336;2023-04-25T09:27:12;15.10;;;13.33;;
30462;SDS011;17256;43.618;25.336;2023-04-25T09:29:43;9.27;;;6.17;;
30462;SDS011;17256;43.618;25.336;2023-04-25T09:32:22;3.90;;;3.40;;
30462;SDS011;17256;43.618;25.336;2023-04-25T09:34:52;3.43;;;2.73;;
30462;SDS011;17256;43.618;25.336;2023-04-25T09:37:20;3.70;;;3.03;;
30462;SDS011;17256;43.618;25.336;2023-04-25T09:40:06;3.37;;;2.73;;
30462;SDS011;17256;43.618;25.336;2023-04-25T09:42:40;3.07;;;2.80;;
30462;SDS011;17256;43.618;25.336;2023-04-25T09:45:06;3.17;;;2.87;;
30462;SDS011;17256;43.618;25.336;2023-04-25T09:47:37;3.40;;;3.10;;
30462;SDS011;17256;43.618;25.336;2023-04-25T09:50:04;2.60;;;2.40;;
30462;SDS011;17256;43.618;25.336;2023-04-25T09:52:40;3.33;;;3.07;;
30462;SDS011;17256;43.618;25.336;2023-04-25T09:55:15;3.77;;;3.33;;
30462;SDS011;17256;43.618;25.336;2023-04-25T09:57:43;3.87;;;3.30;;
30462;SDS011;17256;43.618;25.336;2023-04-25T10:00:13;3.70;;;3.40;;
30462;SDS011;17256;43.618;25.336;2023-04-25T10:02:39;3.67;;;3.30;;
30462;SDS011;17256;43.618;25.336;2023-04-25T10:05:11;3.67;;;3.10;;
30462;SDS011;17256;43.618;25.336;2023-04-25T10:07:39;5.17;;;3.70;;
30462;SDS011;17256;43.618;25.336;2023-04-25T10:10:12;3.73;;;3.40;;
30462;SDS011;17256;43.618;25.336;2023-04-25T10:12:38;3.90;;;3.50;;
30462;SDS011;17256;43.618;25.336;2023-04-25T10:15:05;5.10;;;4.63;;
30462;SDS011;17256;43.618;25.336;2023-04-25T10:17:33;4.37;;;3.50;;
30462;SDS011;17256;43.618;25.336;2023-04-25T10:20:01;5.03;;;3.80;;
30462;SDS011;17256;43.618;25.336;2023-04-25T10:22:31;4.10;;;3.70;;
30462;SDS011;17256;43.618;25.336;2023-04-25T10:25:01;5.10;;;3.73;;
30462;SDS011;17256;43.618;25.336;2023-04-25T10:27:30;6.13;;;4.10;;
30462;SDS011;17256;43.618;25.336;2023-04-25T10:30:03;8.30;;;5.10;;
30462;SDS011;17256;43.618;25.336;2023-04-25T10:32:36;4.77;;;4.23;;
30462;SDS011;17256;43.618;25.336;2023-04-25T10:35:15;3.97;;;3.60;;
30462;SDS011;17256;43.618;25.336;2023-04-25T10:40:31;3.53;;;2.67;;
30462;SDS011;17256;43.618;25.336;2023-04-25T10:46:01;2.80;;;2.37;;
30462;SDS011;17256;43.618;25.336;2023-04-25T10:48:31;2.73;;;2.50;;
30462;SDS011;17256;43.618;25.336;2023-04-25T10:51:09;4.20;;;3.80;;
30462;SDS011;17256;43.618;25.336;2023-04-25T10:53:36;2.50;;;2.30;;
30462;SDS011;17256;43.618;25.336;2023-04-25T10:56:18;2.63;;;2.33;;
30462;SDS011;17256;43.618;25.336;2023-04-25T10:58:47;5.67;;;4.67;;
30462;SDS011;17256;43.618;25.336;2023-04-25T11:01:13;3.10;;;2.63;;
30462;SDS011;17256;43.618;25.336;2023-04-25T11:03:40;2.27;;;1.93;;
30462;SDS011;17256;43.618;25.336;2023-04-25T11:06:55;4.20;;;2.57;;
30462;SDS011;17256;43.618;25.336;2023-04-25T11:09:35;13.17;;;7.37;;
30462;SDS011;17256;43.618;25.336;2023-04-25T11:15:40;3.23;;;2.80;;
30462;SDS011;17256;43.618;25.336;2023-04-25T11:18:05;4.20;;;1.90;;
30462;SDS011;17256;43.618;25.336;2023-04-25T11:20:31;5.70;;;5.20;;
30462;SDS011;17256;43.618;25.336;2023-04-25T11:22:57;4.30;;;3.90;;
30462;SDS011;17256;43.618;25.336;2023-04-25T11:25:26;2.63;;;2.43;;
30462;SDS011;17256;43.618;25.336;2023-04-25T11:27:53;10.23;;;6.17;;
30462;SDS011;17256;43.618;25.336;2023-04-25T11:30:24;5.43;;;3.67;;
30462;SDS011;17256;43.618;25.336;2023-04-25T11:32:50;3.50;;;3.20;;
30462;SDS011;17256;43.618;25.336;2023-04-25T11:35:17;3.27;;;3.00;;
30462;SDS011;17256;43.618;25.336;2023-04-25T11:37:45;2.43;;;2.23;;
30462;SDS011;17256;43.618;25.336;2023-04-25T11:40:11;4.67;;;4.27;;
30462;SDS011;17256;43.618;25.336;2023-04-25T11:42:43;2.70;;;2.50;;
30462;SDS011;17256;43.618;25.336;2023-04-25T11:45:10;2.20;;;2.10;;
30462;SDS011;17256;43.618;25.336;2023-04-25T11:47:36;3.63;;;3.33;;
30462;SDS011;17256;43.618;25.336;2023-04-25T11:54:59;3.87;;;3.57;;
30462;SDS011;17256;43.618;25.336;2023-04-25T11:57:25;12.70;;;7.63;;
30462;SDS011;17256;43.618;25.336;2023-04-25T11:59:50;2.90;;;2.57;;
30462;SDS011;17256;43.618;25.336;2023-04-25T12:02:25;2.73;;;2.53;;
30462;SDS011;17256;43.618;25.336;2023-04-25T12:04:51;3.77;;;1.80;;
30462;SDS011;17256;43.618;25.336;2023-04-25T12:07:17;3.53;;;2.87;;
30462;SDS011;17256;43.618;25.336;2023-04-25T12:09:51;3.07;;;2.77;;
30462;SDS011;17256;43.618;25.336;2023-04-25T12:12:17;2.30;;;2.10;;
30462;SDS011;17256;43.618;25.336;2023-04-25T12:14:45;2.53;;;2.33;;
30462;SDS011;17256;43.618;25.336;2023-04-25T12:17:13;2.50;;;2.30;;
30462;SDS011;17256;43.618;25.336;2023-04-25T12:19:39;3.03;;;2.20;;
30462;SDS011;17256;43.618;25.336;2023-04-25T12:22:22;4.37;;;2.43;;
30462;SDS011;17256;43.618;25.336;2023-04-25T12:24:49;2.57;;;2.37;;
30462;SDS011;17256;43.618;25.336;2023-04-25T12:27:15;2.80;;;2.30;;
30462;SDS011;17256;43.618;25.336;2023-04-25T12:29:49;5.17;;;4.77;;
30462;SDS011;17256;43.618;25.336;2023-04-25T12:32:16;3.77;;;2.20;;
30462;SDS011;17256;43.618;25.336;2023-04-25T12:34:42;1.93;;;1.83;;
30462;SDS011;17256;43.618;25.336;2023-04-25T12:37:08;3.10;;;2.90;;
30462;SDS011;17256;43.618;25.336;2023-04-25T12:39:34;2.70;;;2.50;;
30462;SDS011;17256;43.618;25.336;2023-04-25T12:42:00;1.80;;;1.70;;
30462;SDS011;17256;43.618;25.336;2023-04-25T12:44:26;2.27;;;1.50;;
30462;SDS011;17256;43.618;25.336;2023-04-25T12:46:51;1.73;;;1.63;;
30462;SDS011;17256;43.618;25.336;2023-04-25T12:49:18;4.00;;;1.50;;
30462;SDS011;17256;43.618;25.336;2023-04-25T12:51:43;1.40;;;1.30;;
30462;SDS011;17256;43.618;25.336;2023-04-25T12:54:09;2.00;;;1.80;;
30462;SDS011;17256;43.618;25.336;2023-04-25T12:56:35;1.93;;;1.17;;
30462;SDS011;17256;43.618;25.336;2023-04-25T12:59:01;2.07;;;1.87;;
30462;SDS011;17256;43.618;25.336;2023-04-25T13:01:28;1.10;;;1.10;;
30462;SDS011;17256;43.618;25.336;2023-04-25T13:03:54;1.87;;;1.00;;
30462;SDS011;17256;43.618;25.336;2023-04-25T13:06:21;1.47;;;1.37;;
30462;SDS011;17256;43.618;25.336;2023-04-25T13:08:47;2.63;;;2.10;;
30462;SDS011;17256;43.618;25.336;2023-04-25T13:11:13;2.03;;;1.40;;
30462;SDS011;17256;43.618;25.336;2023-04-25T13:13:40;2.50;;;1.83;;
30462;SDS011;17256;43.618;25.336;2023-04-25T13:16:08;3.87;;;1.67;;
30462;SDS011;17256;43.618;25.336;2023-04-25T13:18:36;1.40;;;1.30;;
30462;SDS011;17256;43.618;25.336;2023-04-25T13:21:02;2.27;;;1.17;;
30462;SDS011;17256;43.618;25.336;2023-04-25T13:23:30;1.83;;;1.47;;
30462;SDS011;17256;43.618;25.336;2023-04-25T13:26:02;1.60;;;1.50;;
30462;SDS011;17256;43.618;25.336;2023-04-25T13:28:30;1.00;;;1.00;;
30462;SDS011;17256;43.618;25.336;2023-04-25T13:30:59;3.57;;;1.40;;
30462;SDS011;17256;43.618;25.336;2023-04-25T13:33:26;1.67;;;1.57;;
30462;SDS011;17256;43.618;25.336;2023-04-25T13:35:54;1.40;;;1.30;;
30462;SDS011;17256;43.618;25.336;2023-04-25T13:38:25;1.47;;;1.30;;
30462;SDS011;17256;43.618;25.336;2023-04-25T13:40:51;1.83;;;1.73;;
30462;SDS011;17256;43.618;25.336;2023-04-25T13:43:21;2.13;;;1.17;;
30462;SDS011;17256;43.618;25.336;2023-04-25T13:45:48;1.50;;;1.30;;
30462;SDS011;17256;43.618;25.336;2023-04-25T13:54:25;5.40;;;2.70;;
30462;SDS011;17256;43.618;25.336;2023-04-25T13:56:55;3.07;;;1.33;;
30462;SDS011;17256;43.618;25.336;2023-04-25T13:59:30;2.43;;;1.77;;
30462;SDS011;17256;43.618;25.336;2023-04-25T14:04:53;6.83;;;2.23;;
30462;SDS011;17256;43.618;25.336;2023-04-25T14:08:11;5.03;;;2.57;;
30462;SDS011;17256;43.618;25.336;2023-04-25T14:10:51;3.63;;;2.30;;
30462;SDS011;17256;43.618;25.336;2023-04-25T14:17:43;7.30;;;6.07;;
30462;SDS011;17256;43.618;25.336;2023-04-25T14:20:55;6.43;;;3.73;;
30462;SDS011;17256;43.618;25.336;2023-04-25T14:23:27;5.90;;;3.40;;
30462;SDS011;17256;43.618;25.336;2023-04-25T14:26:17;8.40;;;3.00;;
30462;SDS011;17256;43.618;25.336;2023-04-25T14:29:10;4.53;;;3.10;;
30462;SDS011;17256;43.618;25.336;2023-04-25T14:31:57;3.97;;;3.27;;
30462;SDS011;17256;43.618;25.336;2023-04-25T14:34:24;4.03;;;2.87;;
30462;SDS011;17256;43.618;25.336;2023-04-25T14:36:51;3.43;;;2.67;;
30462;SDS011;17256;43.618;25.336;2023-04-25T14:39:17;3.87;;;2.43;;
30462;SDS011;17256;43.618;25.336;2023-04-25T14:41:44;3.67;;;2.40;;
30462;SDS011;17256;43.618;25.336;2023-04-25T14:44:10;3.67;;;2.83;;
30462;SDS011;17256;43.618;25.336;2023-04-25T14:46:38;4.87;;;3.23;;
30462;SDS011;17256;43.618;25.336;2023-04-25T14:49:05;3.13;;;2.83;;
30462;SDS011;17256;43.618;25.336;2023-04-25T14:51:32;3.83;;;3.07;;
30462;SDS011;17256;43.618;25.336;2023-04-25T14:54:00;4.13;;;3.43;;
30462;SDS011;17256;43.618;25.336;2023-04-25T14:56:28;3.43;;;3.13;;
30462;SDS011;17256;43.618;25.336;2023-04-25T14:58:55;9.80;;;3.87;;
30462;SDS011;17256;43.618;25.336;2023-04-25T15:01:22;2.80;;;2.60;;
30462;SDS011;17256;43.618;25.336;2023-04-25T15:03:48;3.00;;;2.23;;
30462;SDS011;17256;43.618;25.336;2023-04-25T15:06:13;3.47;;;2.57;;
30462;SDS011;17256;43.618;25.336;2023-04-25T15:08:40;4.30;;;3.77;;
30462;SDS011;17256;43.618;25.336;2023-04-25T15:11:07;4.87;;;4.37;;
30462;SDS011;17256;43.618;25.336;2023-04-25T15:13:33;3.73;;;3.43;;
30462;SDS011;17256;43.618;25.336;2023-04-25T15:16:01;3.40;;;3.10;;
30462;SDS011;17256;43.618;25.336;2023-04-25T15:18:27;3.80;;;2.47;;
30462;SDS011;17256;43.618;25.336;2023-04-25T15:20:53;2.97;;;2.53;;
30462;SDS011;17256;43.618;25.336;2023-04-25T15:23:20;2.10;;;1.70;;
30462;SDS011;17256;43.618;25.336;2023-04-25T15:25:53;2.10;;;1.83;;
30462;SDS011;17256;43.618;25.336;2023-04-25T15:28:52;3.40;;;1.83;;
30462;SDS011;17256;43.618;25.336;2023-04-25T15:31:19;3.20;;;2.93;;
30462;SDS011;17256;43.618;25.336;2023-04-25T15:33:57;2.07;;;1.90;;
30462;SDS011;17256;43.618;25.336;2023-04-25T15:36:22;5.30;;;4.43;;
30462;SDS011;17256;43.618;25.336;2023-04-25T15:38:48;2.30;;;2.10;;
30462;SDS011;17256;43.618;25.336;2023-04-25T15:41:15;3.17;;;2.87;;
30462;SDS011;17256;43.618;25.336;2023-04-25T15:43:40;3.77;;;2.70;;
30462;SDS011;17256;43.618;25.336;2023-04-25T15:46:06;5.17;;;3.50;;
30462;SDS011;17256;43.618;25.336;2023-04-25T15:48:32;2.27;;;2.10;;
30462;SDS011;17256;43.618;25.336;2023-04-25T15:51:02;7.40;;;5.67;;
30462;SDS011;17256;43.618;25.336;2023-04-25T15:53:28;3.23;;;2.37;;
30462;SDS011;17256;43.618;25.336;2023-04-25T15:55:55;2.13;;;2.03;;
30462;SDS011;17256;43.618;25.336;2023-04-25T15:58:21;3.77;;;2.80;;
30462;SDS011;17256;43.618;25.336;2023-04-25T16:00:47;3.27;;;2.97;;
30462;SDS011;17256;43.618;25.336;2023-04-25T16:03:14;3.20;;;2.73;;
30462;SDS011;17256;43.618;25.336;2023-04-25T16:05:40;3.10;;;2.40;;
30462;SDS011;17256;43.618;25.336;2023-04-25T16:08:06;3.80;;;3.50;;
30462;SDS011;17256;43.618;25.336;2023-04-25T16:10:32;4.00;;;3.47;;
30462;SDS011;17256;43.618;25.336;2023-04-25T16:12:58;3.43;;;2.43;;